Alva, OK (73717)

5:35 AM CDT on August 05, 2015 (GMT -0500)
1 block east of NWOSU | | Change Station
CLOSE
Current Station
Personal Weather Station
Location: Alva, OK
Elevation: 1458 ft
Nearby Weather Stations

Elev 1458 ft 36.80 °N, 98.66 °W | Updated 41 seconds ago

Clear
Clear
74.7 °F
Feels Like 72 °F
N
0.0
Wind Variable Wind from North
Gusts 0.0 mph

Today
High -- | Low -- °F
--% Chance of Precip.
Yesterday
High -- | Low -- °F
Precip. -- in
6:43 AM 8:37 PM
Waning Gibbous, 68% visible
Pressure 29.88 in
Visibility 3.0 miles
Clouds Clear
Heat Index 72 °F
Dew Point 74 °F
Humidity 99%
Rainfall 0.00 in
Snow Depth Not available.
UV 0 out of 12
Pollen 5.90 out of 12
Air Quality Not available.
Flu Activity Not available.
METAR KAVK 051015Z AUTO 20006KT 3SM BR CLR 22/22 A2988 RMK AO2

More Conditions Fewer Conditions

Pressure 29.88 in
Visibility 3.0 miles
Clouds Clear
Heat Index 72 °F
Dew Point 74 °F
Humidity 99%
Rainfall 0.00 in
Snow Depth Not available.
UV 0 out of 12
Pollen 5.90 out of 12
Air Quality Not available.
Flu Activity Not available.
METAR KAVK 051015Z AUTO 20006KT 3SM BR CLR 22/22 A2988 RMK AO2

More Conditions Fewer Conditions

10-Day Weather Forecast

×

Almanac

Astronomy

Aug. 05, 2015 Rise Set
Actual Time
Civil Twilight
Nautical Twilight
Astronomical Twilight
Moon
Length of Visible Light
Length of Day
Tomorrow will be .
, % of the Moon is Illuminated

Today's Extremes

State Highs State Lows

Community

WunderPhotos

Upload Photos

1,844,115 photos uploaded!

WunderBlogs® & News

Nearby

Air Quality

  Air Quality AQ Index Pollutant
Not available.

Snow Depth

Station Depth Elevation

Earthquake Activity

City Distance Mag. Time & Date
Minimum magnitude displayed is 2.5.

Coastal Water Temperatures

Place Temperature

Stations

Nearby Weather Stations

Station Location Temp. Windchill Dew Point Humidity Wind Precip. Elev Updated Type